Sperry, Missouri
Current Conditions -  °F | °C
As of 4:29 AM on Thursday 27 Nov 2014 (Local Time) from KIRK Reporting Station
Haze Haze  
Wind Chill: 18°   Ceiling: 1500
Heat Index: 26°   Visibility: 6mi
Dew Point: 23°   Wind: 7mph
Humidity: 88%   Direction: 320°NW
Pressure: 30.43"   Gusts: NA
Location:  40.149°N, 92.6667°W
Report Text: KIRK 271029Z AUTO 32006KT 6SM BR OVC015 M03/M05 A3043 RMK AO2 T10331050
Loading
Personal Weather Stations






























Interactive Weather Map New forecast layout! Learn more

10-Day Weather Forecast

Advertisements
Track Severe Weather on mobile